createdAt,value
2023-01-08T00:00:52.056Z,13.53
2023-01-08T00:03:18.718Z,13.10
2023-01-08T00:05:45.242Z,13.30
2023-01-08T00:08:12.113Z,13.80
2023-01-08T00:10:39.300Z,14.10
2023-01-08T00:13:06.407Z,13.20
2023-01-08T00:15:33.727Z,13.43
2023-01-08T00:18:00.857Z,13.13
2023-01-08T00:20:29.560Z,13.50
2023-01-08T00:22:56.280Z,13.77
2023-01-08T00:25:22.874Z,12.80
2023-01-08T00:27:49.781Z,12.90
2023-01-08T00:30:16.324Z,13.40
2023-01-08T00:32:43.182Z,13.40
2023-01-08T00:35:10.019Z,14.10
2023-01-08T00:37:36.432Z,14.27
2023-01-08T00:40:03.163Z,14.03
2023-01-08T00:42:29.568Z,14.17
2023-01-08T00:44:56.461Z,13.80
2023-01-08T00:47:22.965Z,14.27
2023-01-08T00:49:49.421Z,14.23
2023-01-08T00:52:16.163Z,14.10
2023-01-08T00:54:44.384Z,13.57
2023-01-08T00:57:11.394Z,14.13
2023-01-08T00:59:38.075Z,13.63
2023-01-08T01:02:05.278Z,13.97
2023-01-08T01:04:32.071Z,14.23
2023-01-08T01:06:58.544Z,14.30
2023-01-08T01:09:25.057Z,13.33
2023-01-08T01:11:51.483Z,13.40
2023-01-08T01:14:17.965Z,14.23
2023-01-08T01:16:44.548Z,13.07
2023-01-08T01:19:11.038Z,13.43
2023-01-08T01:21:37.541Z,13.13
2023-01-08T01:24:05.679Z,13.20
2023-01-08T01:26:33.431Z,13.33
2023-01-08T01:29:00.678Z,13.33
2023-01-08T01:31:29.753Z,12.03
2023-01-08T01:33:56.806Z,12.97
2023-01-08T01:36:24.751Z,11.90
2023-01-08T01:38:53.119Z,12.23
2023-01-08T01:41:37.767Z,12.60
2023-01-08T01:44:41.497Z,12.23
2023-01-08T01:47:17.011Z,12.93
2023-01-08T01:50:00.607Z,13.33
2023-01-08T01:52:30.259Z,12.63
2023-01-08T01:54:57.644Z,12.67
2023-01-08T01:57:24.962Z,11.60
2023-01-08T01:59:51.661Z,12.10
2023-01-08T02:02:19.237Z,12.47
2023-01-08T02:04:46.631Z,13.33
2023-01-08T02:07:19.615Z,13.13
2023-01-08T02:09:51.285Z,11.70
2023-01-08T02:12:26.735Z,12.97
2023-01-08T02:15:19.729Z,12.47
2023-01-08T02:18:02.791Z,12.13
2023-01-08T02:20:37.723Z,12.00
2023-01-08T02:23:38.837Z,12.80
2023-01-08T02:26:20.764Z,11.93
2023-01-08T02:29:07.548Z,12.20
2023-01-08T02:31:35.827Z,12.57
2023-01-08T02:34:02.562Z,12.03
2023-01-08T02:36:38.703Z,12.13
2023-01-08T02:39:20.415Z,11.73
2023-01-08T02:42:05.044Z,11.87
2023-01-08T02:44:39.464Z,12.23
2023-01-08T02:47:09.134Z,12.90
2023-01-08T02:49:38.927Z,13.10
2023-01-08T02:52:06.749Z,14.07
2023-01-08T02:54:35.305Z,13.10
2023-01-08T02:57:11.293Z,13.33
2023-01-08T02:59:38.625Z,13.90
2023-01-08T03:02:05.997Z,14.07
2023-01-08T03:04:42.679Z,13.93
2023-01-08T03:07:09.641Z,14.07
2023-01-08T03:09:36.394Z,14.33
2023-01-08T03:12:11.156Z,14.63
2023-01-08T03:14:43.494Z,15.10
2023-01-08T03:17:24.347Z,15.33
2023-01-08T03:19:57.429Z,14.33
2023-01-08T03:22:24.329Z,15.10
2023-01-08T03:24:53.350Z,15.30
2023-01-08T03:27:28.324Z,15.00
2023-01-08T03:29:56.489Z,14.93
2023-01-08T03:32:24.459Z,15.87
2023-01-08T03:34:53.167Z,15.30
2023-01-08T03:37:24.830Z,16.20
2023-01-08T03:39:56.423Z,15.73
2023-01-08T03:42:23.326Z,16.43
2023-01-08T03:44:49.758Z,16.87
2023-01-08T03:47:16.522Z,16.03
2023-01-08T03:49:43.829Z,16.87
2023-01-08T03:52:30.576Z,17.03
2023-01-08T03:54:57.030Z,17.43
2023-01-08T03:57:23.883Z,17.03
2023-01-08T03:59:50.387Z,17.57
2023-01-08T04:02:17.130Z,17.90
2023-01-08T04:04:43.957Z,17.40
2023-01-08T04:07:11.514Z,17.67
2023-01-08T04:09:37.955Z,16.50
2023-01-08T04:12:04.810Z,17.83
2023-01-08T04:14:31.345Z,17.37
2023-01-08T04:16:57.772Z,18.00
2023-01-08T04:19:24.191Z,17.57
2023-01-08T04:21:53.730Z,17.70
2023-01-08T04:24:20.347Z,17.70
2023-01-08T04:26:46.854Z,17.87
2023-01-08T04:29:14.311Z,17.00
2023-01-08T04:31:41.103Z,16.83
2023-01-08T04:34:07.621Z,16.30
2023-01-08T04:36:34.093Z,16.60
2023-01-08T04:39:00.467Z,16.37
2023-01-08T04:41:26.875Z,15.97
2023-01-08T04:43:53.635Z,15.77
2023-01-08T04:46:20.097Z,15.93
2023-01-08T04:48:46.560Z,16.57
2023-01-08T04:51:13.030Z,16.77
2023-01-08T04:53:41.241Z,17.30
2023-01-08T04:56:09.711Z,16.17
2023-01-08T04:58:37.366Z,17.17
2023-01-08T05:01:17.699Z,17.10
2023-01-08T05:03:44.196Z,16.40
2023-01-08T05:06:10.620Z,17.00
2023-01-08T05:08:37.078Z,17.20
2023-01-08T05:11:03.587Z,18.90
2023-01-08T05:13:30.299Z,17.87
2023-01-08T05:16:00.881Z,17.93
2023-01-08T05:18:28.779Z,18.07
2023-01-08T05:20:55.457Z,16.93
2023-01-08T05:23:21.983Z,17.67
2023-01-08T05:25:48.465Z,17.30
2023-01-08T05:28:14.877Z,18.27
2023-01-08T05:30:41.413Z,18.17
2023-01-08T05:33:07.944Z,18.40
2023-01-08T05:35:34.339Z,18.90
2023-01-08T05:38:00.757Z,18.40
2023-01-08T05:40:27.244Z,18.90
2023-01-08T05:42:53.670Z,18.43
2023-01-08T05:45:20.298Z,18.73
2023-01-08T05:47:46.998Z,18.43
2023-01-08T05:50:13.516Z,19.13
2023-01-08T05:52:39.961Z,19.57
2023-01-08T05:55:06.626Z,19.27
2023-01-08T05:57:33.040Z,19.23
2023-01-08T05:59:59.535Z,19.67
2023-01-08T06:02:25.955Z,19.87
2023-01-08T06:04:52.473Z,20.97
2023-01-08T06:07:19.068Z,20.23
2023-01-08T06:09:45.553Z,20.93
2023-01-08T06:12:11.978Z,20.77
2023-01-08T06:14:38.394Z,20.93
2023-01-08T06:17:04.871Z,20.27
2023-01-08T06:19:31.256Z,20.93
2023-01-08T06:21:57.689Z,20.30
2023-01-08T06:24:24.148Z,20.93
2023-01-08T06:26:50.618Z,20.13
2023-01-08T06:29:17.056Z,21.67
2023-01-08T06:31:43.523Z,21.10
2023-01-08T06:34:11.003Z,21.13
2023-01-08T06:36:37.422Z,20.93
2023-01-08T06:39:06.449Z,20.57
2023-01-08T06:41:32.854Z,21.43
2023-01-08T06:43:59.390Z,20.80
2023-01-08T06:46:26.005Z,21.63
2023-01-08T06:48:52.528Z,20.93
2023-01-08T06:51:19.097Z,15.37
2023-01-08T06:53:48.284Z,19.87
2023-01-08T06:56:14.924Z,22.03
2023-01-08T06:58:41.374Z,22.20
2023-01-08T07:01:13.463Z,21.10
2023-01-08T07:03:39.997Z,20.80
2023-01-08T07:06:06.843Z,20.13
2023-01-08T07:08:33.391Z,21.53
2023-01-08T07:11:06.076Z,19.40
2023-01-08T07:13:32.558Z,20.43
2023-01-08T07:15:58.957Z,19.37
2023-01-08T07:18:25.374Z,20.43
2023-01-08T07:20:51.910Z,20.27
2023-01-08T07:23:18.349Z,20.43
2023-01-08T07:25:44.801Z,20.20
2023-01-08T07:28:12.662Z,20.60
2023-01-08T07:30:39.136Z,20.80
2023-01-08T07:33:05.578Z,20.70
2023-01-08T07:35:31.999Z,20.40
2023-01-08T07:37:58.451Z,20.43
2023-01-08T07:40:24.948Z,20.33
2023-01-08T07:43:02.520Z,20.50
2023-01-08T07:45:29.402Z,19.60
2023-01-08T07:47:59.876Z,18.70
2023-01-08T07:50:26.840Z,20.93
2023-01-08T07:52:53.408Z,20.53
2023-01-08T07:55:19.769Z,19.47
2023-01-08T07:57:46.168Z,19.23
2023-01-08T08:00:14.696Z,19.17
2023-01-08T08:02:41.317Z,20.13
2023-01-08T08:05:08.220Z,18.17
2023-01-08T08:07:36.017Z,17.83
2023-01-08T08:10:03.881Z,18.93
2023-01-08T08:12:30.499Z,18.33
2023-01-08T08:14:56.940Z,18.03
2023-01-08T08:17:23.649Z,17.93
2023-01-08T08:19:50.031Z,18.20
2023-01-08T08:22:16.487Z,18.27
2023-01-08T08:24:42.891Z,17.40
2023-01-08T08:27:09.350Z,16.83
2023-01-08T08:29:35.764Z,16.50
2023-01-08T08:32:02.221Z,15.97
2023-01-08T08:34:28.696Z,15.53
2023-01-08T08:36:55.079Z,15.70
2023-01-08T08:39:21.559Z,15.77
2023-01-08T08:41:47.988Z,14.53
2023-01-08T08:44:14.439Z,15.03
2023-01-08T08:46:40.874Z,14.07
2023-01-08T08:49:07.582Z,14.27
2023-01-08T08:51:33.981Z,16.70
2023-01-08T08:54:00.400Z,13.93
2023-01-08T08:56:29.802Z,15.40
2023-01-08T08:58:58.024Z,15.03
2023-01-08T09:01:24.752Z,15.53
2023-01-08T09:03:51.248Z,14.87
2023-01-08T09:06:17.695Z,14.50
2023-01-08T09:08:44.217Z,14.27
2023-01-08T09:11:12.118Z,14.70
2023-01-08T09:13:39.920Z,14.57
2023-01-08T09:16:06.665Z,15.13
2023-01-08T09:18:33.285Z,13.63
2023-01-08T09:21:04.567Z,13.37
2023-01-08T09:23:31.100Z,13.93
2023-01-08T09:26:02.164Z,13.27
2023-01-08T09:28:30.740Z,14.10
2023-01-08T09:31:12.348Z,12.83
2023-01-08T09:33:40.518Z,12.57
2023-01-08T09:36:11.471Z,13.90
2023-01-08T09:38:38.040Z,13.80
2023-01-08T09:41:08.667Z,13.47
2023-01-08T09:43:36.732Z,13.50
2023-01-08T09:46:06.152Z,12.63
2023-01-08T09:48:35.883Z,13.30
2023-01-08T09:51:02.799Z,12.80
2023-01-08T09:53:29.428Z,12.87
2023-01-08T09:56:10.035Z,13.43
2023-01-08T09:58:40.382Z,13.17
2023-01-08T10:01:09.718Z,13.97
2023-01-08T10:03:45.502Z,14.30
2023-01-08T10:06:14.565Z,12.97
2023-01-08T10:08:41.444Z,11.33
2023-01-08T10:11:09.371Z,13.33
2023-01-08T10:13:38.387Z,14.17
2023-01-08T10:16:10.417Z,14.20
2023-01-08T10:18:37.662Z,12.97
2023-01-08T10:21:04.439Z,13.20
2023-01-08T10:23:30.946Z,13.73
2023-01-08T10:26:00.307Z,13.37
2023-01-08T10:28:31.705Z,13.70
2023-01-08T10:31:16.184Z,12.53
2023-01-08T10:33:45.604Z,13.20
2023-01-08T10:36:15.314Z,13.40
2023-01-08T10:38:48.292Z,13.80
2023-01-08T10:41:15.250Z,11.23
2023-01-08T10:43:58.321Z,13.57
2023-01-08T10:46:27.411Z,13.97
2023-01-08T10:48:59.049Z,12.60
2023-01-08T10:51:27.723Z,13.63
2023-01-08T10:53:56.061Z,12.37
2023-01-08T10:56:28.223Z,12.50
2023-01-08T10:58:55.633Z,12.67
2023-01-08T11:01:30.160Z,12.77
2023-01-08T11:04:02.114Z,11.90
2023-01-08T11:06:34.103Z,11.50
2023-01-08T11:09:02.475Z,12.27
2023-01-08T11:11:36.286Z,11.87
2023-01-08T11:14:15.646Z,11.07
2023-01-08T11:16:42.985Z,10.53
2023-01-08T11:19:39.981Z,11.63
2023-01-08T11:22:25.362Z,11.17
2023-01-08T11:24:53.569Z,10.67
2023-01-08T11:27:41.928Z,11.50
2023-01-08T11:30:12.577Z,11.93
2023-01-08T11:32:51.235Z,11.93
2023-01-08T11:35:30.016Z,11.20
2023-01-08T11:38:01.839Z,12.03
2023-01-08T11:40:31.641Z,10.87
2023-01-08T11:43:10.345Z,11.77
2023-01-08T11:45:57.800Z,11.50
2023-01-08T11:48:31.348Z,11.37
2023-01-08T11:51:24.260Z,11.13
2023-01-08T11:54:15.700Z,11.63
2023-01-08T11:56:57.385Z,11.47
2023-01-08T11:59:33.983Z,11.10
2023-01-08T12:02:36.929Z,11.63
2023-01-08T12:05:26.248Z,11.03
2023-01-08T12:08:28.055Z,11.37
2023-01-08T12:11:16.202Z,11.80
2023-01-08T12:14:06.958Z,11.93
2023-01-08T12:16:47.569Z,11.63
2023-01-08T12:19:27.735Z,12.67
2023-01-08T12:22:25.385Z,12.97
2023-01-08T12:25:02.441Z,11.97
2023-01-08T12:27:55.870Z,12.60
2023-01-08T12:30:48.669Z,12.83
2023-01-08T12:33:33.859Z,12.47
2023-01-08T12:36:04.693Z,11.73
2023-01-08T12:38:42.493Z,13.07
2023-01-08T12:41:14.515Z,13.47
2023-01-08T12:43:55.158Z,13.97
2023-01-08T12:46:23.109Z,14.23
2023-01-08T12:48:53.265Z,13.20
2023-01-08T12:51:27.053Z,12.90
2023-01-08T12:53:59.916Z,14.03
2023-01-08T12:57:07.773Z,14.50
2023-01-08T12:59:53.996Z,13.87
2023-01-08T13:02:58.001Z,14.20
2023-01-08T13:05:24.442Z,14.70
2023-01-08T13:07:56.885Z,14.33
2023-01-08T13:10:32.416Z,15.13
2023-01-08T13:13:01.819Z,15.47
2023-01-08T13:15:30.482Z,15.47
2023-01-08T13:18:03.132Z,15.33
2023-01-08T13:20:31.322Z,14.97
2023-01-08T13:23:05.616Z,15.40
2023-01-08T13:25:37.121Z,16.00
2023-01-08T13:28:45.178Z,16.07
2023-01-08T13:31:20.705Z,16.03
2023-01-08T13:33:52.746Z,15.37
2023-01-08T13:36:21.131Z,15.20
2023-01-08T13:39:11.970Z,15.30
2023-01-08T13:41:42.856Z,15.70
2023-01-08T13:44:22.491Z,14.53
2023-01-08T13:46:58.101Z,14.27
2023-01-08T13:49:44.923Z,15.27
2023-01-08T13:52:31.994Z,15.10
2023-01-08T13:54:59.745Z,14.10
2023-01-08T13:57:27.742Z,15.50
2023-01-08T13:59:55.823Z,15.37
2023-01-08T14:02:27.599Z,15.17
2023-01-08T14:04:54.633Z,15.30
2023-01-08T14:07:23.747Z,16.60
2023-01-08T14:09:50.884Z,17.70
2023-01-08T14:12:20.518Z,17.20
2023-01-08T14:14:57.776Z,18.40
2023-01-08T14:17:32.132Z,19.37
2023-01-08T14:19:59.059Z,19.53
2023-01-08T14:22:33.451Z,19.07
2023-01-08T14:25:15.753Z,19.47
2023-01-08T14:27:42.486Z,19.07
2023-01-08T14:30:16.747Z,20.27
2023-01-08T14:32:43.487Z,19.43
2023-01-08T14:35:18.380Z,19.53
2023-01-08T14:37:45.085Z,19.07
2023-01-08T14:40:16.465Z,18.73
2023-01-08T14:43:03.978Z,20.20
2023-01-08T14:45:35.285Z,18.83
2023-01-08T14:48:09.934Z,18.83
2023-01-08T14:50:40.016Z,19.50
2023-01-08T14:53:28.671Z,19.20
2023-01-08T14:55:59.920Z,18.93
2023-01-08T14:58:28.859Z,20.93
2023-01-08T15:01:03.767Z,23.30
2023-01-08T15:03:49.608Z,21.93
2023-01-08T15:06:27.408Z,22.80
2023-01-08T15:08:59.643Z,20.47
2023-01-08T15:11:51.203Z,21.00
2023-01-08T15:14:28.858Z,21.40
2023-01-08T15:17:02.205Z,22.13
2023-01-08T15:19:42.593Z,20.43
2023-01-08T15:22:17.002Z,21.60
2023-01-08T15:25:01.942Z,20.07
2023-01-08T15:27:31.560Z,19.93
2023-01-08T15:30:02.811Z,17.53
2023-01-08T15:32:37.258Z,19.17
2023-01-08T15:35:21.502Z,20.43
2023-01-08T15:37:52.813Z,18.80
2023-01-08T15:44:13.084Z,19.93
2023-01-08T15:46:39.826Z,20.23
2023-01-08T15:49:06.862Z,20.33
2023-01-08T15:51:34.601Z,20.67
2023-01-08T15:54:04.151Z,20.03
2023-01-08T15:56:30.787Z,19.23
2023-01-08T15:58:57.257Z,20.33
2023-01-08T16:01:24.425Z,18.77
2023-01-08T16:03:51.172Z,19.57
2023-01-08T16:06:17.745Z,19.97
2023-01-08T16:08:46.143Z,19.47
2023-01-08T16:11:13.617Z,19.63
2023-01-08T16:13:40.298Z,20.40
2023-01-08T16:16:11.273Z,19.17
2023-01-08T16:18:38.324Z,19.87
2023-01-08T16:21:06.065Z,19.50
2023-01-08T16:23:38.046Z,18.53
2023-01-08T16:26:12.551Z,19.17
2023-01-08T16:28:39.793Z,18.70
2023-01-08T16:31:06.941Z,18.50
2023-01-08T16:33:33.431Z,17.27
2023-01-08T16:36:04.507Z,18.57
2023-01-08T16:38:33.393Z,19.93
2023-01-08T16:41:00.320Z,21.77
2023-01-08T16:43:28.948Z,21.70
2023-01-08T16:45:56.229Z,23.13
2023-01-08T16:48:23.656Z,21.90
2023-01-08T16:50:50.208Z,21.50
2023-01-08T16:53:21.600Z,22.10
2023-01-08T16:55:48.192Z,22.63
2023-01-08T16:58:14.968Z,21.10
2023-01-08T17:00:41.673Z,20.87
2023-01-08T17:03:08.256Z,21.13
2023-01-08T17:05:36.208Z,19.97
2023-01-08T17:08:02.885Z,21.03
2023-01-08T17:10:29.432Z,20.43
2023-01-08T17:12:56.010Z,20.77
2023-01-08T17:15:22.500Z,20.90
2023-01-08T17:17:49.030Z,20.80
2023-01-08T17:20:15.784Z,19.70
2023-01-08T17:22:46.450Z,19.10
2023-01-08T17:25:14.524Z,19.00
2023-01-08T17:27:42.121Z,20.03
2023-01-08T17:30:10.803Z,19.17
2023-01-08T17:32:37.995Z,20.53
2023-01-08T17:35:05.940Z,20.90
2023-01-08T17:37:33.581Z,20.63
2023-01-08T17:40:01.382Z,20.57
2023-01-08T17:42:31.862Z,20.17
2023-01-08T17:45:03.402Z,19.73
2023-01-08T17:47:30.841Z,21.70
2023-01-08T17:49:57.777Z,21.40
2023-01-08T17:52:28.710Z,21.47
2023-01-08T17:54:55.392Z,20.27
2023-01-08T17:57:29.581Z,21.67
2023-01-08T17:59:57.386Z,22.60
2023-01-08T18:02:24.748Z,20.90
2023-01-08T18:04:51.474Z,22.17
2023-01-08T18:07:20.653Z,22.57
2023-01-08T18:09:49.301Z,23.10
2023-01-08T18:12:15.976Z,22.50
2023-01-08T18:14:44.134Z,23.17
2023-01-08T18:17:10.952Z,24.47
2023-01-08T18:19:37.448Z,23.97
2023-01-08T18:22:04.000Z,24.43
2023-01-08T18:24:30.789Z,25.20
2023-01-08T18:26:58.589Z,24.67
2023-01-08T18:29:26.855Z,25.30
2023-01-08T18:31:56.031Z,24.97
2023-01-08T18:34:22.688Z,24.70
2023-01-08T18:36:49.224Z,25.70
2023-01-08T18:39:15.966Z,26.20
2023-01-08T18:42:01.257Z,24.80
2023-01-08T18:44:28.028Z,24.47
2023-01-08T18:46:57.678Z,25.77
2023-01-08T18:49:24.598Z,24.70
2023-01-08T18:51:51.111Z,25.80
2023-01-08T18:54:17.691Z,23.97
2023-01-08T18:56:46.551Z,25.77
2023-01-08T18:59:13.298Z,24.67
2023-01-08T19:01:40.124Z,25.10
2023-01-08T19:04:07.731Z,26.70
2023-01-08T19:06:35.029Z,26.00
2023-01-08T19:09:04.115Z,27.23
2023-01-08T19:11:30.983Z,25.53
2023-01-08T19:13:58.270Z,26.00
2023-01-08T19:16:25.579Z,25.63
2023-01-08T19:18:52.655Z,25.33
2023-01-08T19:21:19.659Z,25.80
2023-01-08T19:23:47.693Z,22.93
2023-01-08T19:26:15.683Z,25.37
2023-01-08T19:28:43.443Z,24.37
2023-01-08T19:31:20.435Z,24.07
2023-01-08T19:33:47.235Z,24.37
2023-01-08T19:36:17.785Z,24.60
2023-01-08T19:38:44.703Z,24.80
2023-01-08T19:41:34.380Z,24.50
2023-01-08T19:44:01.251Z,24.20
2023-01-08T19:46:40.407Z,23.57
2023-01-08T19:49:18.121Z,24.30
2023-01-08T19:51:53.246Z,23.47
2023-01-08T19:54:24.713Z,24.57
2023-01-08T19:56:56.689Z,25.00
2023-01-08T19:59:37.136Z,23.67
2023-01-08T20:02:04.125Z,24.73
2023-01-08T20:04:41.805Z,23.53
2023-01-08T20:07:41.641Z,23.07
2023-01-08T20:10:11.128Z,23.40
2023-01-08T20:12:38.667Z,22.93
2023-01-08T20:15:06.174Z,23.00
2023-01-08T20:17:33.059Z,23.13
2023-01-08T20:20:00.076Z,23.60
2023-01-08T20:22:28.408Z,22.23
2023-01-08T20:24:58.541Z,21.53
2023-01-08T20:27:25.533Z,22.57
2023-01-08T20:30:00.901Z,21.47
2023-01-08T20:32:31.371Z,21.90
2023-01-08T20:34:58.004Z,22.33
2023-01-08T20:37:24.804Z,22.50
2023-01-08T20:39:53.806Z,21.23
2023-01-08T20:42:34.105Z,21.90
2023-01-08T20:45:01.510Z,21.57
2023-01-08T20:47:29.384Z,20.97
2023-01-08T20:49:56.483Z,21.17
2023-01-08T20:52:23.450Z,22.33
2023-01-08T20:54:59.995Z,22.63
2023-01-08T20:57:28.283Z,23.17
2023-01-08T20:59:55.348Z,22.93
2023-01-08T21:02:22.003Z,23.03
2023-01-08T21:04:51.357Z,22.67
2023-01-08T21:07:22.749Z,22.67
2023-01-08T21:09:49.489Z,22.17
2023-01-08T21:12:16.208Z,21.50
2023-01-08T21:14:42.856Z,22.17
2023-01-08T21:17:09.472Z,21.93
2023-01-08T21:19:36.044Z,21.70
2023-01-08T21:22:02.789Z,21.90
2023-01-08T21:24:29.356Z,23.00
2023-01-08T21:26:55.971Z,21.57
2023-01-08T21:29:23.561Z,23.23
2023-01-08T21:31:50.299Z,23.10
2023-01-08T21:34:16.868Z,23.00
2023-01-08T21:36:44.879Z,22.30
2023-01-08T21:39:15.292Z,22.77
2023-01-08T21:42:00.692Z,22.87
2023-01-08T21:44:45.998Z,21.70
2023-01-08T21:47:16.620Z,22.47
2023-01-08T21:49:44.364Z,23.13
2023-01-08T21:52:31.074Z,21.37
2023-01-08T21:55:03.153Z,22.53
2023-01-08T21:57:30.352Z,22.07
2023-01-08T22:00:13.472Z,22.10
2023-01-08T22:02:42.879Z,21.43
2023-01-08T22:05:11.187Z,22.53
2023-01-08T22:07:39.783Z,22.23
2023-01-08T22:10:08.358Z,22.50
2023-01-08T22:12:36.126Z,22.43
2023-01-08T22:15:04.738Z,23.20
2023-01-08T22:17:33.839Z,22.47
2023-01-08T22:20:01.981Z,22.57
2023-01-08T22:22:31.966Z,22.20
2023-01-08T22:24:58.527Z,22.00
2023-01-08T22:27:25.267Z,22.47
2023-01-08T22:29:51.831Z,23.33
2023-01-08T22:32:18.456Z,23.37
2023-01-08T22:34:47.357Z,22.23
2023-01-08T22:37:18.955Z,22.07
2023-01-08T22:39:46.041Z,21.00
2023-01-08T22:42:12.643Z,21.80
2023-01-08T22:44:39.443Z,21.30
2023-01-08T22:47:08.504Z,20.50
2023-01-08T22:49:35.052Z,21.13
2023-01-08T22:52:01.921Z,20.90
2023-01-08T22:54:28.568Z,20.70
2023-01-08T22:56:55.093Z,22.60
2023-01-08T22:59:22.114Z,21.30
2023-01-08T23:01:49.126Z,20.87
2023-01-08T23:04:18.259Z,20.90
2023-01-08T23:06:47.158Z,20.73
2023-01-08T23:09:14.000Z,20.13
2023-01-08T23:11:40.964Z,21.07
2023-01-08T23:14:07.666Z,21.00
2023-01-08T23:16:34.341Z,21.20
2023-01-08T23:19:01.537Z,20.70
2023-01-08T23:21:28.634Z,20.83
2023-01-08T23:23:57.736Z,20.67
2023-01-08T23:26:29.411Z,21.50
2023-01-08T23:28:57.443Z,20.07
2023-01-08T23:31:26.461Z,20.57
2023-01-08T23:33:53.254Z,21.80
2023-01-08T23:36:21.403Z,20.83
2023-01-08T23:38:50.478Z,21.10
2023-01-08T23:41:17.616Z,21.90
2023-01-08T23:43:45.875Z,20.73
2023-01-08T23:46:13.576Z,20.47
2023-01-08T23:48:40.189Z,19.87
2023-01-08T23:51:07.171Z,20.97
2023-01-08T23:53:33.856Z,20.10
2023-01-08T23:56:01.899Z,20.03
2023-01-08T23:58:29.950Z,18.80
